Terminal Aerodrome Forecast
Issued by NWS Albany, NY

Home | Current Version | Previous Version | Text Only | Print | Product List | Glossary On
Versions: 1 2 3 4 5 6 7 8 9 10 11 12 13 14 15 16 17 18 19 20
000
FTUS41 KALY 312100 AAA
TAFALB
TAF AMD
KALB 312134Z 3122/0118 05006KT P6SM BKN040 BKN260
     FM010600 02005KT P6SM BKN100
     FM011400 01009KT P6SM OVC040=

USA.gov is the U.S. government's official web portal to all federal, state and local government web resources and services.